Celine — HBEF — position and weather

sailwx.info

Track history (hours):
 
Tides and Currents Weather Stations Pressure Air Temp Water Temp Dewpoint Dewpoint Depression Visibility Wind Speed Wind Dir Waves Ship Positions

Celine

Last reported at 2017-Jun-28 13:28 UTC. Time now 2017-Jun-28 14:08 UTC.
Position N 35°54' W 005°19'.

Length 129 m; draft 4.8 m.

Type: Cargo ship. MMSI: 269057000.

Date/timePositionNaut miles runAvg speedWind from/ knotsBaromVisibWave heightAir tempDewpointWater temp
2017-Jun-28 13:28N 35°54' W 005°19'0 0.0
2017-Jun-28 12:58N 35°54' W 005°19'0 0.0
2017-Jun-28 12:28N 35°54' W 005°19'0 0.0
2017-Jun-28 11:58N 35°54' W 005°19'0 0.0
2017-Jun-28 11:28N 35°54' W 005°19'0 0.0
2017-Jun-28 10:58N 35°54' W 005°19'0 0.0
2017-Jun-28 10:28N 35°54' W 005°19'0 0.0
2017-Jun-28 09:58N 35°54' W 005°19'0 0.0
2017-Jun-28 09:28N 35°54' W 005°19'0 0.0
2017-Jun-28 08:58N 35°54' W 005°19'0 0.0
2017-Jun-28 08:28N 35°54' W 005°19'0 1.0
2017-Jun-28 08:00N 35°54' W 005°19'2 3.5
2017-Jun-28 07:30N 35°55' W 005°18'3 5.2
2017-Jun-28 07:00N 35°57' W 005°21'5 9.7
2017-Jun-28 06:30N 35°57' W 005°27'14 9.4
2017-Jun-28 04:58N 35°55' W 005°45'4 8.5
2017-Jun-28 04:30N 35°54' W 005°50'4 8.7
2017-Jun-28 04:00N 35°55' W 005°55'217 7.4
2017-Jun-26 22:42N 37°43' W 009°50'2 8.4
2017-Jun-26 22:29N 37°45' W 009°51'4 8.4
2017-Jun-26 21:58N 37°49' W 009°52'4 8.3
2017-Jun-26 21:26N 37°54' W 009°53'4 8.6
2017-Jun-26 20:59N 37°57' W 009°54'4 8.7
2017-Jun-26 20:29N 38°02' W 009°55'4 8.6
2017-Jun-26 19:59N 38°06' W 009°56'4 8.2
2017-Jun-26 19:30N 38°10' W 009°57'4 8.4
2017-Jun-26 19:00N 38°14' W 009°58'4 8.8
2017-Jun-26 18:30N 38°18' W 009°59'4 9.0
2017-Jun-26 18:00N 38°23' W 010°01'5 9.6
2017-Jun-26 17:30N 38°27' W 010°02'5 9.6
2017-Jun-26 17:00N 38°32' W 010°04'5 9.4
2017-Jun-26 16:30N 38°36' W 010°05'5 9.1
2017-Jun-26 16:00N 38°41' W 010°06'5 9.2
2017-Jun-26 15:30N 38°46' W 010°06'5 9.1
2017-Jun-26 15:00N 38°50' W 010°06'5 9.0
2017-Jun-26 14:30N 38°55' W 010°06'9 8.8
2017-Jun-26 13:30N 39°03' W 010°06'4 8.6
2017-Jun-26 13:00N 39°08' W 010°06'4 8.4
2017-Jun-26 12:30N 39°12' W 010°06'4 9.0
2017-Jun-26 12:00N 39°16' W 010°06'5 9.3
2017-Jun-26 11:29N 39°21' W 010°06'  
2017-Jun-23 19:49N 48°46' W 006°41'1911.4
2017-Jun-23 18:06N 49°04' W 006°31'310.8
2017-Jun-23 17:48N 49°07' W 006°29'122 9.6
2017-Jun-23 05:04N 51°08' W 005°60'1 9.1
2017-Jun-23 04:56N 51°09' W 005°60'4 9.1
2017-Jun-23 04:30N 51°13' W 005°60'5 9.3
2017-Jun-23 03:58N 51°18' W 005°60'6 9.6
2017-Jun-23 03:21N 51°24' W 005°59'410.1
2017-Jun-23 03:00N 51°27' W 005°59'610.3
2017-Jun-23 02:27N 51°33' W 005°60'510.7
2017-Jun-23 02:00N 51°38' W 005°60'11510.2
2017-Jun-22 14:47N 53°25' W 004°54'412.4
2017-Jun-22 14:30N 53°28' W 004°50'1211.8
2017-Jun-22 13:30N 53°33' W 004°33'713.2
2017-Jun-22 12:59N 53°33' W 004°21'613.2
2017-Jun-22 12:30N 53°33' W 004°10'612.8
2017-Jun-22 12:00N 53°33' W 003°59'612.4
2017-Jun-22 11:30N 53°33' W 003°49'611.9
2017-Jun-22 11:00N 53°33' W 003°39'611.5
2017-Jun-22 10:30N 53°33' W 003°29'611.2
2017-Jun-22 10:00N 53°32' W 003°20'5 8.9
2017-Jun-22 09:30N 53°31' W 003°13'611.5
2017-Jun-22 09:00N 53°29' W 003°04'5 9.6
2017-Jun-22 08:30N 53°24' W 003°01'0 0.4
2017-Jun-22 08:00N 53°24' W 003°01'0 0.0
2017-Jun-22 07:30N 53°24' W 003°01'0 0.0
2017-Jun-22 07:00N 53°24' W 003°01'0 0.0
2017-Jun-22 06:30N 53°24' W 003°01'0 0.1
2017-Jun-22 06:00N 53°24' W 003°01'1 1.5
2017-Jun-22 05:27N 53°24' W 003°03'0 0.2
2017-Jun-22 04:57N 53°24' W 003°03'0 0.0
2017-Jun-22 04:18N 53°24' W 003°03'0 0.0
2017-Jun-22 03:57N 53°24' W 003°03'0 0.0
2017-Jun-22 03:30N 53°24' W 003°02'0 0.0
2017-Jun-22 03:00N 53°24' W 003°03'0 0.0
2017-Jun-22 02:27N 53°24' W 003°03'0 0.0
2017-Jun-22 02:00N 53°24' W 003°03'0 0.0
2017-Jun-22 01:30N 53°24' W 003°03'0 0.0
2017-Jun-22 00:54N 53°24' W 003°03'0 0.0
2017-Jun-22 00:30N 53°24' W 003°03'0 0.0
2017-Jun-21 23:51N 53°24' W 003°03'0 0.0
2017-Jun-21 23:21N 53°24' W 003°03'0 0.0
2017-Jun-21 23:00N 53°24' W 003°03'0 0.0
2017-Jun-21 22:30N 53°24' W 003°03'0 0.0
2017-Jun-21 22:00N 53°24' W 003°03'0 0.0
2017-Jun-21 21:24N 53°24' W 003°03'0 0.0
2017-Jun-21 20:54N 53°24' W 003°03'0 0.0
2017-Jun-21 20:30N 53°24' W 003°03'0 0.0
2017-Jun-21 19:57N 53°24' W 003°03'0 0.0
2017-Jun-21 19:30N 53°24' W 003°03'0 0.0
2017-Jun-21 19:00N 53°24' W 003°03'0 0.0
2017-Jun-21 18:30N 53°24' W 003°03'0 0.0
2017-Jun-21 18:00N 53°24' W 003°03'0 0.0
2017-Jun-21 17:27N 53°24' W 003°03'0 0.0
2017-Jun-21 16:57N 53°24' W 003°03'0 0.0
2017-Jun-21 16:24N 53°24' W 003°03'0 0.0
2017-Jun-21 16:00N 53°24' W 003°03'0 0.0
2017-Jun-21 15:30N 53°24' W 003°03'0 0.0
2017-Jun-21 14:51N 53°24' W 003°03'0 0.0
2017-Jun-21 14:30N 53°24' W 003°03'0 0.0
2017-Jun-21 13:15N 53°24' W 003°03'0 0.0
2017-Jun-21 13:00N 53°24' W 003°03'0 0.0
2017-Jun-21 12:27N 53°24' W 003°03'0 0.0
2017-Jun-21 12:00N 53°24' W 003°03'0 0.0
2017-Jun-21 11:27N 53°24' W 003°03'0 0.0
2017-Jun-21 10:57N 53°24' W 003°03'0 0.0
2017-Jun-21 10:27N 53°24' W 003°03'0 0.0
2017-Jun-21 10:00N 53°24' W 003°03'0 0.0
2017-Jun-21 09:30N 53°24' W 003°03'0 0.0
2017-Jun-21 09:00N 53°24' W 003°03'0 0.0
2017-Jun-21 08:27N 53°24' W 003°03'0 0.0
2017-Jun-21 08:00N 53°24' W 003°03'0 0.0
2017-Jun-21 07:27N 53°24' W 003°03'0 0.0
2017-Jun-21 06:57N 53°24' W 003°03'0 0.0
2017-Jun-21 06:27N 53°24' W 003°03'0 0.0
2017-Jun-21 05:57N 53°24' W 003°03'0 0.0
2017-Jun-21 05:30N 53°24' W 003°03'0 0.0
2017-Jun-21 04:51N 53°24' W 003°03'0 0.0
2017-Jun-21 04:30N 53°24' W 003°03'0 0.0
2017-Jun-21 03:54N 53°24' W 003°03'0 0.0
2017-Jun-21 03:30N 53°24' W 003°03'0 0.0
2017-Jun-21 03:00N 53°24' W 003°03'0 0.0
2017-Jun-21 02:30N 53°24' W 003°03'0 0.0
2017-Jun-21 01:51N 53°24' W 003°03'0 0.0
2017-Jun-21 01:27N 53°24' W 003°03'0 0.0
2017-Jun-21 00:51N 53°24' W 003°03'0 0.0
2017-Jun-21 00:30N 53°24' W 003°03'0 0.0
2017-Jun-20 23:51N 53°24' W 003°03'0 0.0
2017-Jun-20 23:30N 53°24' W 003°03'0 0.0
2017-Jun-20 23:00N 53°24' W 003°03'0 0.0
2017-Jun-20 22:27N 53°24' W 003°03'0 0.0
2017-Jun-20 22:00N 53°24' W 003°03'0 0.0
2017-Jun-20 21:27N 53°24' W 003°03'0 0.0
2017-Jun-20 20:45N 53°24' W 003°03'0 0.0
2017-Jun-20 20:27N 53°24' W 003°03'0 0.0
2017-Jun-20 20:00N 53°24' W 003°03'0 0.0
2017-Jun-20 19:27N 53°24' W 003°03'0 0.0
2017-Jun-20 18:57N 53°24' W 003°03'0 0.0
2017-Jun-20 18:30N 53°24' W 003°03'0 0.0
2017-Jun-20 17:57N 53°24' W 003°03'0 0.0
2017-Jun-20 17:09N 53°24' W 003°03'0 0.0
2017-Jun-20 16:57N 53°24' W 003°03'0 0.0
2017-Jun-20 16:15N 53°24' W 003°03'0 0.0
2017-Jun-20 15:54N 53°24' W 003°03'0 0.0
2017-Jun-20 15:27N 53°24' W 003°03'0 0.0
2017-Jun-20 14:54N 53°24' W 003°03'0 0.0
2017-Jun-20 13:54N 53°24' W 003°03'0 0.0
2017-Jun-20 13:30N 53°24' W 003°03'0 0.0
2017-Jun-20 12:54N 53°24' W 003°03'0 0.0
2017-Jun-20 12:27N 53°24' W 003°03'0 0.0
2017-Jun-20 11:48N 53°24' W 003°03'0 0.0
2017-Jun-20 11:30N 53°24' W 003°03'0 0.0
2017-Jun-20 11:00N 53°24' W 003°03'0 0.0
2017-Jun-20 10:27N 53°24' W 003°03'0 0.0
2017-Jun-20 10:00N 53°24' W 003°03'0 0.0
2017-Jun-20 09:30N 53°24' W 003°03'0 0.0
2017-Jun-20 08:51N 53°24' W 003°03'0 0.1
2017-Jun-20 08:30N 53°24' W 003°02'1 1.5
2017-Jun-20 08:00N 53°24' W 003°01'0 0.1
2017-Jun-20 07:30N 53°24' W 003°01'0 0.0
2017-Jun-20 07:00N 53°24' W 003°01'0 0.1
2017-Jun-20 06:30N 53°24' W 003°01'0 0.4
2017-Jun-20 06:00N 53°24' W 003°01'0 0.1
2017-Jun-20 05:30N 53°24' W 003°01'3 5.6
2017-Jun-20 05:00N 53°27' W 003°02'4 8.1
2017-Jun-20 04:30N 53°30' W 003°06'4 8.2
2017-Jun-20 04:00N 53°31' W 003°13'4 8.1
2017-Jun-20 03:30N 53°31' W 003°20'3 5.7
2017-Jun-20 03:00N 53°31' W 003°24'2 2.8
2017-Jun-20 02:26N 53°29' W 003°25'0 0.3
2017-Jun-20 01:59N 53°29' W 003°26'0 0.1
2017-Jun-20 01:29N 53°29' W 003°26'0 0.0
2017-Jun-20 00:59N 53°29' W 003°26'0 0.1
2017-Jun-20 00:29N 53°29' W 003°26'0 0.0
2017-Jun-19 23:59N 53°29' W 003°26'0 0.0
2017-Jun-19 23:29N 53°29' W 003°26'0 0.0
2017-Jun-19 22:56N 53°29' W 003°26'0 0.0
2017-Jun-19 21:59N 53°29' W 003°26'0 0.0
2017-Jun-19 21:29N 53°29' W 003°26'0 0.0
2017-Jun-19 20:53N 53°29' W 003°26'0 0.0
2017-Jun-19 20:29N 53°29' W 003°26'0 0.1
2017-Jun-19 19:59N 53°29' W 003°26'0 0.1
2017-Jun-19 19:29N 53°29' W 003°26'0 0.0
2017-Jun-19 18:47N 53°29' W 003°26'0 0.1
2017-Jun-19 18:29N 53°29' W 003°25'0 0.1
2017-Jun-19 17:41N 53°29' W 003°25'0 0.0
2017-Jun-19 17:29N 53°29' W 003°25'0 0.0
2017-Jun-19 16:59N 53°29' W 003°25'0 0.0
2017-Jun-19 16:29N 53°29' W 003°25'0 0.0
2017-Jun-19 15:56N 53°29' W 003°25'0 0.0
2017-Jun-19 15:29N 53°29' W 003°25'0 0.0
2017-Jun-19 14:59N 53°29' W 003°25'0 0.0
2017-Jun-19 13:56N 53°29' W 003°25'0 0.1
2017-Jun-19 13:20N 53°29' W 003°26'0 0.1
2017-Jun-19 12:47N 53°29' W 003°26'0 0.1
2017-Jun-19 12:26N 53°29' W 003°26'0 0.0
2017-Jun-19 11:56N 53°29' W 003°26'0 0.0
2017-Jun-19 11:29N 53°29' W 003°26'0 0.0
2017-Jun-19 10:53N 53°29' W 003°26'0 0.0
2017-Jun-19 10:29N 53°29' W 003°26'0 0.0
2017-Jun-19 09:59N 53°29' W 003°26'0 0.0
2017-Jun-19 09:23N 53°29' W 003°26'0 0.0
2017-Jun-19 08:53N 53°29' W 003°26'0 0.0
2017-Jun-19 08:29N 53°29' W 003°26'0 0.0
2017-Jun-19 07:56N 53°29' W 003°26'0 0.0
2017-Jun-19 07:20N 53°29' W 003°26'0 0.0
2017-Jun-19 06:59N 53°29' W 003°26'0 0.0
2017-Jun-19 06:29N 53°29' W 003°26'0 0.2
2017-Jun-19 05:59N 53°29' W 003°25'0 0.1
2017-Jun-19 05:29N 53°29' W 003°25'0 0.0
2017-Jun-19 04:56N 53°29' W 003°25'0 0.0
2017-Jun-19 04:26N 53°29' W 003°25'0 0.0
2017-Jun-19 03:53N 53°29' W 003°25'0 0.0
2017-Jun-19 03:17N 53°29' W 003°25'0 0.0
2017-Jun-19 02:59N 53°29' W 003°25'0 0.0
2017-Jun-19 02:20N 53°29' W 003°25'0 0.1
2017-Jun-19 01:59N 53°29' W 003°25'0 0.0
2017-Jun-19 01:23N 53°29' W 003°25'0 0.1
2017-Jun-19 00:59N 53°29' W 003°25'0 0.1
2017-Jun-19 00:29N 53°29' W 003°26'0 0.1
2017-Jun-18 23:59N 53°29' W 003°26'0 0.0
2017-Jun-18 23:29N 53°29' W 003°26'0 0.0
2017-Jun-18 22:56N 53°29' W 003°26'0 0.0
2017-Jun-18 22:14N 53°29' W 003°26'0 0.0
2017-Jun-18 21:59N 53°29' W 003°26'0 0.0
2017-Jun-18 21:26N 53°29' W 003°26'0 0.0
2017-Jun-18 20:56N 53°29' W 003°26'0 0.0
2017-Jun-18 20:29N 53°29' W 003°26'0 0.0
2017-Jun-18 19:56N 53°29' W 003°26'0 0.0
2017-Jun-18 19:29N 53°29' W 003°26'0 0.0
2017-Jun-18 18:59N 53°29' W 003°26'0 0.1
2017-Jun-18 18:29N 53°29' W 003°26'0 0.1
2017-Jun-18 17:59N 53°29' W 003°26'0 0.1
2017-Jun-18 17:23N 53°29' W 003°25'0 0.0
2017-Jun-18 16:56N 53°29' W 003°25'0 0.0
2017-Jun-18 16:29N 53°29' W 003°25'0 0.0
2017-Jun-18 15:56N 53°29' W 003°25'0 0.0
2017-Jun-18 15:26N 53°29' W 003°25'0 0.0
2017-Jun-18 14:50N 53°29' W 003°25'0 0.0
2017-Jun-18 14:29N 53°29' W 003°25'0 0.0
2017-Jun-18 13:59N 53°29' W 003°25'0 0.0
2017-Jun-18 13:29N 53°29' W 003°25'  
Track history (hours):
 
Tides and Currents Weather Stations Pressure Air Temp Water Temp Dewpoint Dewpoint Depression Visibility Wind Speed Wind Dir Waves Ship Positions

Celine

Last reported at 2017-Jun-28 13:28 UTC. Time now 2017-Jun-28 14:08 UTC.
Position N 35°54' W 005°19'.

Length 129 m; draft 4.8 m.

Type: Cargo ship. MMSI: 269057000.

Date/timePositionNaut miles runAvg speedWind from/ knotsBaromVisibWave heightAir tempDewpointWater temp
2017-Jun-28 13:28N 35°54' W 005°19'0 0.0
2017-Jun-28 12:58N 35°54' W 005°19'0 0.0
2017-Jun-28 12:28N 35°54' W 005°19'0 0.0
2017-Jun-28 11:58N 35°54' W 005°19'0 0.0
2017-Jun-28 11:28N 35°54' W 005°19'0 0.0
2017-Jun-28 10:58N 35°54' W 005°19'0 0.0
2017-Jun-28 10:28N 35°54' W 005°19'0 0.0
2017-Jun-28 09:58N 35°54' W 005°19'0 0.0
2017-Jun-28 09:28N 35°54' W 005°19'0 0.0
2017-Jun-28 08:58N 35°54' W 005°19'0 0.0
2017-Jun-28 08:28N 35°54' W 005°19'0 1.0
2017-Jun-28 08:00N 35°54' W 005°19'2 3.5
2017-Jun-28 07:30N 35°55' W 005°18'3 5.2
2017-Jun-28 07:00N 35°57' W 005°21'5 9.7
2017-Jun-28 06:30N 35°57' W 005°27'14 9.4
2017-Jun-28 04:58N 35°55' W 005°45'4 8.5
2017-Jun-28 04:30N 35°54' W 005°50'4 8.7
2017-Jun-28 04:00N 35°55' W 005°55'217 7.4
2017-Jun-26 22:42N 37°43' W 009°50'2 8.4
2017-Jun-26 22:29N 37°45' W 009°51'4 8.4
2017-Jun-26 21:58N 37°49' W 009°52'4 8.3
2017-Jun-26 21:26N 37°54' W 009°53'4 8.6
2017-Jun-26 20:59N 37°57' W 009°54'4 8.7
2017-Jun-26 20:29N 38°02' W 009°55'4 8.6
2017-Jun-26 19:59N 38°06' W 009°56'4 8.2
2017-Jun-26 19:30N 38°10' W 009°57'4 8.4
2017-Jun-26 19:00N 38°14' W 009°58'4 8.8
2017-Jun-26 18:30N 38°18' W 009°59'4 9.0
2017-Jun-26 18:00N 38°23' W 010°01'5 9.6
2017-Jun-26 17:30N 38°27' W 010°02'5 9.6
2017-Jun-26 17:00N 38°32' W 010°04'5 9.4
2017-Jun-26 16:30N 38°36' W 010°05'5 9.1
2017-Jun-26 16:00N 38°41' W 010°06'5 9.2
2017-Jun-26 15:30N 38°46' W 010°06'5 9.1
2017-Jun-26 15:00N 38°50' W 010°06'5 9.0
2017-Jun-26 14:30N 38°55' W 010°06'9 8.8
2017-Jun-26 13:30N 39°03' W 010°06'4 8.6
2017-Jun-26 13:00N 39°08' W 010°06'4 8.4
2017-Jun-26 12:30N 39°12' W 010°06'4 9.0
2017-Jun-26 12:00N 39°16' W 010°06'5 9.3
2017-Jun-26 11:29N 39°21' W 010°06'  
2017-Jun-23 19:49N 48°46' W 006°41'1911.4
2017-Jun-23 18:06N 49°04' W 006°31'310.8
2017-Jun-23 17:48N 49°07' W 006°29'122 9.6
2017-Jun-23 05:04N 51°08' W 005°60'1 9.1
2017-Jun-23 04:56N 51°09' W 005°60'4 9.1
2017-Jun-23 04:30N 51°13' W 005°60'5 9.3
2017-Jun-23 03:58N 51°18' W 005°60'6 9.6
2017-Jun-23 03:21N 51°24' W 005°59'410.1
2017-Jun-23 03:00N 51°27' W 005°59'610.3
2017-Jun-23 02:27N 51°33' W 005°60'510.7
2017-Jun-23 02:00N 51°38' W 005°60'11510.2
2017-Jun-22 14:47N 53°25' W 004°54'412.4
2017-Jun-22 14:30N 53°28' W 004°50'1211.8
2017-Jun-22 13:30N 53°33' W 004°33'713.2
2017-Jun-22 12:59N 53°33' W 004°21'613.2
2017-Jun-22 12:30N 53°33' W 004°10'612.8
2017-Jun-22 12:00N 53°33' W 003°59'612.4
2017-Jun-22 11:30N 53°33' W 003°49'611.9
2017-Jun-22 11:00N 53°33' W 003°39'611.5
2017-Jun-22 10:30N 53°33' W 003°29'611.2
2017-Jun-22 10:00N 53°32' W 003°20'5 8.9
2017-Jun-22 09:30N 53°31' W 003°13'611.5
2017-Jun-22 09:00N 53°29' W 003°04'5 9.6
2017-Jun-22 08:30N 53°24' W 003°01'0 0.4
2017-Jun-22 08:00N 53°24' W 003°01'0 0.0
2017-Jun-22 07:30N 53°24' W 003°01'0 0.0
2017-Jun-22 07:00N 53°24' W 003°01'0 0.0
2017-Jun-22 06:30N 53°24' W 003°01'0 0.1
2017-Jun-22 06:00N 53°24' W 003°01'1 1.5
2017-Jun-22 05:27N 53°24' W 003°03'0 0.2
2017-Jun-22 04:57N 53°24' W 003°03'0 0.0
2017-Jun-22 04:18N 53°24' W 003°03'0 0.0
2017-Jun-22 03:57N 53°24' W 003°03'0 0.0
2017-Jun-22 03:30N 53°24' W 003°02'0 0.0
2017-Jun-22 03:00N 53°24' W 003°03'0 0.0
2017-Jun-22 02:27N 53°24' W 003°03'0 0.0
2017-Jun-22 02:00N 53°24' W 003°03'0 0.0
2017-Jun-22 01:30N 53°24' W 003°03'0 0.0
2017-Jun-22 00:54N 53°24' W 003°03'0 0.0
2017-Jun-22 00:30N 53°24' W 003°03'0 0.0
2017-Jun-21 23:51N 53°24' W 003°03'0 0.0
2017-Jun-21 23:21N 53°24' W 003°03'0 0.0
2017-Jun-21 23:00N 53°24' W 003°03'0 0.0
2017-Jun-21 22:30N 53°24' W 003°03'0 0.0
2017-Jun-21 22:00N 53°24' W 003°03'0 0.0
2017-Jun-21 21:24N 53°24' W 003°03'0 0.0
2017-Jun-21 20:54N 53°24' W 003°03'0 0.0
2017-Jun-21 20:30N 53°24' W 003°03'0 0.0
2017-Jun-21 19:57N 53°24' W 003°03'0 0.0
2017-Jun-21 19:30N 53°24' W 003°03'0 0.0
2017-Jun-21 19:00N 53°24' W 003°03'0 0.0
2017-Jun-21 18:30N 53°24' W 003°03'0 0.0
2017-Jun-21 18:00N 53°24' W 003°03'0 0.0
2017-Jun-21 17:27N 53°24' W 003°03'0 0.0
2017-Jun-21 16:57N 53°24' W 003°03'0 0.0
2017-Jun-21 16:24N 53°24' W 003°03'0 0.0
2017-Jun-21 16:00N 53°24' W 003°03'0 0.0
2017-Jun-21 15:30N 53°24' W 003°03'0 0.0
2017-Jun-21 14:51N 53°24' W 003°03'0 0.0
2017-Jun-21 14:30N 53°24' W 003°03'0 0.0
2017-Jun-21 13:15N 53°24' W 003°03'0 0.0
2017-Jun-21 13:00N 53°24' W 003°03'0 0.0
2017-Jun-21 12:27N 53°24' W 003°03'0 0.0
2017-Jun-21 12:00N 53°24' W 003°03'0 0.0
2017-Jun-21 11:27N 53°24' W 003°03'0 0.0
2017-Jun-21 10:57N 53°24' W 003°03'0 0.0
2017-Jun-21 10:27N 53°24' W 003°03'0 0.0
2017-Jun-21 10:00N 53°24' W 003°03'0 0.0
2017-Jun-21 09:30N 53°24' W 003°03'0 0.0
2017-Jun-21 09:00N 53°24' W 003°03'0 0.0
2017-Jun-21 08:27N 53°24' W 003°03'0 0.0
2017-Jun-21 08:00N 53°24' W 003°03'0 0.0
2017-Jun-21 07:27N 53°24' W 003°03'0 0.0
2017-Jun-21 06:57N 53°24' W 003°03'0 0.0
2017-Jun-21 06:27N 53°24' W 003°03'0 0.0
2017-Jun-21 05:57N 53°24' W 003°03'0 0.0
2017-Jun-21 05:30N 53°24' W 003°03'0 0.0
2017-Jun-21 04:51N 53°24' W 003°03'0 0.0
2017-Jun-21 04:30N 53°24' W 003°03'0 0.0
2017-Jun-21 03:54N 53°24' W 003°03'0 0.0
2017-Jun-21 03:30N 53°24' W 003°03'0 0.0
2017-Jun-21 03:00N 53°24' W 003°03'0 0.0
2017-Jun-21 02:30N 53°24' W 003°03'0 0.0
2017-Jun-21 01:51N 53°24' W 003°03'0 0.0
2017-Jun-21 01:27N 53°24' W 003°03'0 0.0
2017-Jun-21 00:51N 53°24' W 003°03'0 0.0
2017-Jun-21 00:30N 53°24' W 003°03'0 0.0
2017-Jun-20 23:51N 53°24' W 003°03'0 0.0
2017-Jun-20 23:30N 53°24' W 003°03'0 0.0
2017-Jun-20 23:00N 53°24' W 003°03'0 0.0
2017-Jun-20 22:27N 53°24' W 003°03'0 0.0
2017-Jun-20 22:00N 53°24' W 003°03'0 0.0
2017-Jun-20 21:27N 53°24' W 003°03'0 0.0
2017-Jun-20 20:45N 53°24' W 003°03'0 0.0
2017-Jun-20 20:27N 53°24' W 003°03'0 0.0
2017-Jun-20 20:00N 53°24' W 003°03'0 0.0
2017-Jun-20 19:27N 53°24' W 003°03'0 0.0
2017-Jun-20 18:57N 53°24' W 003°03'0 0.0
2017-Jun-20 18:30N 53°24' W 003°03'0 0.0
2017-Jun-20 17:57N 53°24' W 003°03'0 0.0
2017-Jun-20 17:09N 53°24' W 003°03'0 0.0
2017-Jun-20 16:57N 53°24' W 003°03'0 0.0
2017-Jun-20 16:15N 53°24' W 003°03'0 0.0
2017-Jun-20 15:54N 53°24' W 003°03'0 0.0
2017-Jun-20 15:27N 53°24' W 003°03'0 0.0
2017-Jun-20 14:54N 53°24' W 003°03'0 0.0
2017-Jun-20 13:54N 53°24' W 003°03'0 0.0
2017-Jun-20 13:30N 53°24' W 003°03'0 0.0
2017-Jun-20 12:54N 53°24' W 003°03'0 0.0
2017-Jun-20 12:27N 53°24' W 003°03'0 0.0
2017-Jun-20 11:48N 53°24' W 003°03'0 0.0
2017-Jun-20 11:30N 53°24' W 003°03'0 0.0
2017-Jun-20 11:00N 53°24' W 003°03'0 0.0
2017-Jun-20 10:27N 53°24' W 003°03'0 0.0
2017-Jun-20 10:00N 53°24' W 003°03'0 0.0
2017-Jun-20 09:30N 53°24' W 003°03'0 0.0
2017-Jun-20 08:51N 53°24' W 003°03'0 0.1
2017-Jun-20 08:30N 53°24' W 003°02'1 1.5
2017-Jun-20 08:00N 53°24' W 003°01'0 0.1
2017-Jun-20 07:30N 53°24' W 003°01'0 0.0
2017-Jun-20 07:00N 53°24' W 003°01'0 0.1
2017-Jun-20 06:30N 53°24' W 003°01'0 0.4
2017-Jun-20 06:00N 53°24' W 003°01'0 0.1
2017-Jun-20 05:30N 53°24' W 003°01'3 5.6
2017-Jun-20 05:00N 53°27' W 003°02'4 8.1
2017-Jun-20 04:30N 53°30' W 003°06'4 8.2
2017-Jun-20 04:00N 53°31' W 003°13'4 8.1
2017-Jun-20 03:30N 53°31' W 003°20'3 5.7
2017-Jun-20 03:00N 53°31' W 003°24'2 2.8
2017-Jun-20 02:26N 53°29' W 003°25'0 0.3
2017-Jun-20 01:59N 53°29' W 003°26'0 0.1
2017-Jun-20 01:29N 53°29' W 003°26'0 0.0
2017-Jun-20 00:59N 53°29' W 003°26'0 0.1
2017-Jun-20 00:29N 53°29' W 003°26'0 0.0
2017-Jun-19 23:59N 53°29' W 003°26'0 0.0
2017-Jun-19 23:29N 53°29' W 003°26'0 0.0
2017-Jun-19 22:56N 53°29' W 003°26'0 0.0
2017-Jun-19 21:59N 53°29' W 003°26'0 0.0
2017-Jun-19 21:29N 53°29' W 003°26'0 0.0
2017-Jun-19 20:53N 53°29' W 003°26'0 0.0
2017-Jun-19 20:29N 53°29' W 003°26'0 0.1
2017-Jun-19 19:59N 53°29' W 003°26'0 0.1
2017-Jun-19 19:29N 53°29' W 003°26'0 0.0
2017-Jun-19 18:47N 53°29' W 003°26'0 0.1
2017-Jun-19 18:29N 53°29' W 003°25'0 0.1
2017-Jun-19 17:41N 53°29' W 003°25'0 0.0
2017-Jun-19 17:29N 53°29' W 003°25'0 0.0
2017-Jun-19 16:59N 53°29' W 003°25'0 0.0
2017-Jun-19 16:29N 53°29' W 003°25'0 0.0
2017-Jun-19 15:56N 53°29' W 003°25'0 0.0
2017-Jun-19 15:29N 53°29' W 003°25'0 0.0
2017-Jun-19 14:59N 53°29' W 003°25'0 0.0
2017-Jun-19 13:56N 53°29' W 003°25'0 0.1
2017-Jun-19 13:20N 53°29' W 003°26'0 0.1
2017-Jun-19 12:47N 53°29' W 003°26'0 0.1
2017-Jun-19 12:26N 53°29' W 003°26'0 0.0
2017-Jun-19 11:56N 53°29' W 003°26'0 0.0
2017-Jun-19 11:29N 53°29' W 003°26'0 0.0
2017-Jun-19 10:53N 53°29' W 003°26'0 0.0
2017-Jun-19 10:29N 53°29' W 003°26'0 0.0
2017-Jun-19 09:59N 53°29' W 003°26'0 0.0
2017-Jun-19 09:23N 53°29' W 003°26'0 0.0
2017-Jun-19 08:53N 53°29' W 003°26'0 0.0
2017-Jun-19 08:29N 53°29' W 003°26'0 0.0
2017-Jun-19 07:56N 53°29' W 003°26'0 0.0
2017-Jun-19 07:20N 53°29' W 003°26'0 0.0
2017-Jun-19 06:59N 53°29' W 003°26'0 0.0
2017-Jun-19 06:29N 53°29' W 003°26'0 0.2
2017-Jun-19 05:59N 53°29' W 003°25'0 0.1
2017-Jun-19 05:29N 53°29' W 003°25'0 0.0
2017-Jun-19 04:56N 53°29' W 003°25'0 0.0
2017-Jun-19 04:26N 53°29' W 003°25'0 0.0
2017-Jun-19 03:53N 53°29' W 003°25'0 0.0
2017-Jun-19 03:17N 53°29' W 003°25'0 0.0
2017-Jun-19 02:59N 53°29' W 003°25'0 0.0
2017-Jun-19 02:20N 53°29' W 003°25'0 0.1
2017-Jun-19 01:59N 53°29' W 003°25'0 0.0
2017-Jun-19 01:23N 53°29' W 003°25'0 0.1
2017-Jun-19 00:59N 53°29' W 003°25'0 0.1
2017-Jun-19 00:29N 53°29' W 003°26'0 0.1
2017-Jun-18 23:59N 53°29' W 003°26'0 0.0
2017-Jun-18 23:29N 53°29' W 003°26'0 0.0
2017-Jun-18 22:56N 53°29' W 003°26'0 0.0
2017-Jun-18 22:14N 53°29' W 003°26'0 0.0
2017-Jun-18 21:59N 53°29' W 003°26'0 0.0
2017-Jun-18 21:26N 53°29' W 003°26'0 0.0
2017-Jun-18 20:56N 53°29' W 003°26'0 0.0
2017-Jun-18 20:29N 53°29' W 003°26'0 0.0
2017-Jun-18 19:56N 53°29' W 003°26'0 0.0
2017-Jun-18 19:29N 53°29' W 003°26'0 0.0
2017-Jun-18 18:59N 53°29' W 003°26'0 0.1
2017-Jun-18 18:29N 53°29' W 003°26'0 0.1
2017-Jun-18 17:59N 53°29' W 003°26'0 0.1
2017-Jun-18 17:23N 53°29' W 003°25'0 0.0
2017-Jun-18 16:56N 53°29' W 003°25'0 0.0
2017-Jun-18 16:29N 53°29' W 003°25'0 0.0
2017-Jun-18 15:56N 53°29' W 003°25'0 0.0
2017-Jun-18 15:26N 53°29' W 003°25'0 0.0
2017-Jun-18 14:50N 53°29' W 003°25'0 0.0
2017-Jun-18 14:29N 53°29' W 003°25'0 0.0
2017-Jun-18 13:59N 53°29' W 003°25'0 0.0
2017-Jun-18 13:29N 53°29' W 003°25'  

Dump ship's entire track history